Time;durP1;ratioP1;P1;durP2;ratioP2;P2;SDS_P1;SDS_P2;PMS_P1;PMS_P2;Temp;Humidity;BMP_temperature;BMP_pressure;BME280_temperature;BME280_humidity;BME280_pressure;Samples;Min_cycle;Max_cycle;Signal;HPM_P1;HPM_P2
2023/05/09 00:01:17;;;;;;;7.03;4.25;;;20.90;64.50;;;;;;5072164;28;20063;-64
2023/05/09 00:03:42;;;;;;;5.95;3.88;;;20.90;64.50;;;;;;5071637;28;20093;-64
2023/05/09 00:06:08;;;;;;;5.65;3.70;;;20.90;64.50;;;;;;5072223;28;20127;-65
2023/05/09 00:08:34;;;;;;;8.88;4.15;;;20.90;64.50;;;;;;5072455;28;20048;-64
2023/05/09 00:11:00;;;;;;;6.65;3.75;;;20.90;64.50;;;;;;5071632;28;20053;-64
2023/05/09 00:13:26;;;;;;;7.10;4.00;;;20.90;64.50;;;;;;5072361;28;20052;-65
2023/05/09 00:15:56;;;;;;;5.82;3.83;;;20.90;64.40;;;;;;5072394;28;20041;-64
2023/05/09 00:18:22;;;;;;;6.63;3.85;;;20.90;64.50;;;;;;5071495;28;20040;-64
2023/05/09 00:20:48;;;;;;;5.60;4.13;;;20.90;64.50;;;;;;5071509;28;20387;-64
2023/05/09 00:23:13;;;;;;;5.95;3.75;;;20.90;64.40;;;;;;5072254;28;20060;-64
2023/05/09 00:25:39;;;;;;;4.85;3.70;;;20.90;64.40;;;;;;5071183;28;20141;-64
2023/05/09 00:28:05;;;;;;;5.30;3.75;;;20.90;64.40;;;;;;5072503;28;20440;-64
2023/05/09 00:30:30;;;;;;;5.13;3.97;;;20.90;64.40;;;;;;5072107;28;20044;-64
2023/05/09 00:32:56;;;;;;;6.57;4.47;;;20.90;64.40;;;;;;5071576;28;20052;-65
2023/05/09 00:35:21;;;;;;;5.55;3.83;;;20.90;64.40;;;;;;5071787;28;20041;-64
2023/05/09 00:37:47;;;;;;;5.45;3.85;;;20.90;64.40;;;;;;5072339;28;20080;-64
2023/05/09 00:40:13;;;;;;;5.78;3.92;;;20.90;64.30;;;;;;5073286;28;20048;-64
2023/05/09 00:42:38;;;;;;;5.82;3.70;;;20.90;64.30;;;;;;5075749;28;20115;-64
2023/05/09 00:45:05;;;;;;;6.22;4.30;;;20.90;64.30;;;;;;5075537;28;20040;-64
2023/05/09 00:47:32;;;;;;;6.10;4.20;;;20.90;64.30;;;;;;5075075;28;20050;-64
2023/05/09 00:49:58;;;;;;;7.28;3.83;;;20.90;64.30;;;;;;5074500;28;20120;-65
2023/05/09 00:52:24;;;;;;;6.80;3.58;;;20.90;64.30;;;;;;5074793;28;20124;-65
2023/05/09 00:54:54;;;;;;;4.70;3.63;;;20.80;64.20;;;;;;5075871;28;20452;-66
2023/05/09 00:57:20;;;;;;;4.57;3.60;;;20.90;64.20;;;;;;5074041;28;20051;-65
2023/05/09 00:59:46;;;;;;;4.97;3.40;;;20.80;64.20;;;;;;5074505;28;20087;-65
2023/05/09 01:02:11;;;;;;;5.72;3.92;;;20.80;64.20;;;;;;5073798;28;20045;-65
2023/05/09 01:04:37;;;;;;;5.60;3.65;;;20.80;64.20;;;;;;5074132;28;20040;-65
2023/05/09 01:07:10;;;;;;;4.63;3.45;;;20.80;64.20;;;;;;5074723;28;20094;-64
2023/05/09 01:09:55;;;;;;;5.55;4.10;;;20.80;64.10;;;;;;5074281;28;20040;-65
2023/05/09 01:12:36;;;;;;;4.82;3.80;;;20.80;64.10;;;;;;5075120;28;20041;-65
2023/05/09 01:15:10;;;;;;;5.22;3.63;;;20.80;64.10;;;;;;5073468;28;20062;-65
2023/05/09 01:17:46;;;;;;;5.00;3.28;;;20.80;64.10;;;;;;5074174;28;20118;-65
2023/05/09 01:20:19;;;;;;;5.82;3.60;;;20.80;64.10;;;;;;5073933;28;20068;-64
2023/05/09 01:22:47;;;;;;;5.70;3.53;;;20.80;64.10;;;;;;5074931;28;20059;-64
2023/05/09 01:25:31;;;;;;;;;;;20.80;64.10;;;;;;5056944;28;20052;-65
2023/05/09 01:28:06;;;;;;;4.72;3.42;;;20.80;64.00;;;;;;5074544;28;19942;-65
2023/05/09 01:30:32;;;;;;;4.97;3.17;;;20.80;64.10;;;;;;5073589;28;20033;-64
2023/05/09 01:32:59;;;;;;;4.63;3.28;;;20.80;64.10;;;;;;5073623;28;20090;-65
2023/05/09 01:35:25;;;;;;;4.75;3.03;;;20.80;64.10;;;;;;5072592;28;20076;-64
2023/05/09 01:37:50;;;;;;;4.70;3.40;;;20.80;64.10;;;;;;5075006;28;20075;-64
2023/05/09 01:40:17;;;;;;;5.00;3.60;;;20.80;64.10;;;;;;5073286;28;20434;-64
2023/05/09 01:42:49;;;;;;;4.70;3.28;;;20.80;64.10;;;;;;5072436;28;20036;-64
2023/05/09 01:45:15;;;;;;;5.15;3.10;;;20.80;64.10;;;;;;5073095;28;20124;-64
2023/05/09 01:47:41;;;;;;;5.07;3.72;;;20.80;64.10;;;;;;5073225;28;20131;-65
2023/05/09 01:50:07;;;;;;;5.28;3.70;;;20.70;64.00;;;;;;5072302;28;20045;-65
2023/05/09 01:52:32;;;;;;;4.65;3.42;;;20.80;64.00;;;;;;5072723;28;20098;-64
2023/05/09 01:54:58;;;;;;;4.97;3.30;;;20.70;63.90;;;;;;5056473;28;20086;-64
2023/05/09 01:57:24;;;;;;;5.60;3.63;;;20.80;64.00;;;;;;5072145;28;20048;-65
2023/05/09 01:59:49;;;;;;;4.93;3.45;;;20.70;63.90;;;;;;5073155;28;20094;-65
2023/05/09 02:02:15;;;;;;;5.18;3.47;;;20.70;63.90;;;;;;5072950;28;20059;-65
2023/05/09 02:04:41;;;;;;;5.88;3.33;;;20.70;63.90;;;;;;5071889;28;20041;-64
2023/05/09 02:07:06;;;;;;;4.22;3.25;;;20.80;64.00;;;;;;5072604;28;20054;-65
2023/05/09 02:09:32;;;;;;;4.57;2.90;;;20.70;63.90;;;;;;5073159;28;20127;-65
2023/05/09 02:11:57;;;;;;;4.97;3.38;;;20.70;63.90;;;;;;5072514;28;20084;-65
2023/05/09 02:14:23;;;;;;;4.65;3.42;;;20.70;63.90;;;;;;5055805;28;20041;-64
2023/05/09 02:16:48;;;;;;;5.32;3.45;;;20.70;63.90;;;;;;5072857;28;20056;-64
2023/05/09 02:19:15;;;;;;;4.65;3.25;;;20.70;63.90;;;;;;5073649;28;20048;-65
2023/05/09 02:21:41;;;;;;;3.88;2.90;;;20.70;63.90;;;;;;5073948;28;20044;-64
2023/05/09 02:24:07;;;;;;;4.00;3.00;;;20.70;63.80;;;;;;5054525;28;20053;-64
2023/05/09 02:26:32;;;;;;;4.57;3.08;;;20.70;63.80;;;;;;5073901;28;20048;-64
2023/05/09 02:28:58;;;;;;;3.53;3.10;;;20.70;63.80;;;;;;5056040;28;20127;-64
2023/05/09 02:31:23;;;;;;;4.28;2.97;;;20.70;63.80;;;;;;5071407;28;20040;-64
2023/05/09 02:33:50;;;;;;;4.38;3.03;;;20.70;63.80;;;;;;5072582;28;20503;-65
2023/05/09 02:36:15;;;;;;;4.35;2.80;;;20.70;63.80;;;;;;5072185;28;20080;-65
2023/05/09 02:38:41;;;;;;;3.92;2.83;;;20.70;63.70;;;;;;5071583;28;20452;-64
2023/05/09 02:41:07;;;;;;;4.40;3.30;;;20.70;63.70;;;;;;5072266;28;20040;-64
2023/05/09 02:43:32;;;;;;;4.47;3.15;;;20.70;63.70;;;;;;5072168;28;20040;-64
2023/05/09 02:45:58;;;;;;;4.13;3.08;;;20.70;63.70;;;;;;5072215;28;20097;-65
2023/05/09 02:48:24;;;;;;;4.28;3.10;;;20.70;63.70;;;;;;5072189;28;20040;-65
2023/05/09 02:50:49;;;;;;;4.32;3.28;;;20.70;64.30;;;;;;5073428;28;20044;-65
2023/05/09 02:53:15;;;;;;;3.80;2.90;;;20.70;63.70;;;;;;5072187;28;20070;-65
2023/05/09 02:55:40;;;;;;;5.05;3.05;;;20.70;63.70;;;;;;5073235;28;20395;-65
2023/05/09 02:58:07;;;;;;;3.35;2.60;;;20.70;63.60;;;;;;5072948;28;20052;-65
2023/05/09 03:00:32;;;;;;;3.63;2.70;;;20.70;63.60;;;;;;5072575;28;20048;-65
2023/05/09 03:02:58;;;;;;;4.80;2.70;;;20.70;63.60;;;;;;5072506;28;20125;-65
2023/05/09 03:05:24;;;;;;;3.88;2.90;;;20.70;63.60;;;;;;5071440;28;20045;-64
2023/05/09 03:07:50;;;;;;;3.53;2.70;;;20.60;63.60;;;;;;5072456;28;20048;-65
2023/05/09 03:10:16;;;;;;;3.97;3.13;;;20.60;63.60;;;;;;5072482;28;20387;-65
2023/05/09 03:12:42;;;;;;;3.92;2.78;;;20.60;63.50;;;;;;5073048;28;20040;-65
2023/05/09 03:15:08;;;;;;;4.57;3.05;;;20.70;63.60;;;;;;5071993;28;20048;-65
2023/05/09 03:17:34;;;;;;;5.13;3.10;;;20.60;63.50;;;;;;5072935;28;20044;-65
2023/05/09 03:20:00;;;;;;;3.83;3.03;;;20.60;63.50;;;;;;5070981;28;20040;-66
2023/05/09 03:22:25;;;;;;;3.45;2.58;;;20.60;63.50;;;;;;5072593;28;20052;-65
2023/05/09 03:24:51;;;;;;;4.63;2.88;;;20.60;63.60;;;;;;5072544;28;20047;-65
2023/05/09 03:27:16;;;;;;;4.40;2.90;;;20.60;63.50;;;;;;5070382;28;20113;-65
2023/05/09 03:29:42;;;;;;;3.80;2.70;;;20.60;63.50;;;;;;5071502;28;20136;-65
2023/05/09 03:32:07;;;;;;;3.17;2.63;;;20.60;63.50;;;;;;5072705;28;20051;-65
2023/05/09 03:34:33;;;;;;;4.05;2.65;;;20.60;63.50;;;;;;5071783;28;20499;-65
2023/05/09 03:36:59;;;;;;;4.40;2.88;;;20.60;63.50;;;;;;5072927;28;20044;-64
2023/05/09 03:39:24;;;;;;;3.97;2.60;;;20.60;63.50;;;;;;5072257;28;20044;-65
2023/05/09 03:41:50;;;;;;;3.53;2.50;;;20.60;63.50;;;;;;5070795;28;20186;-64
2023/05/09 03:44:15;;;;;;;3.53;2.83;;;20.60;63.50;;;;;;5072329;28;20457;-65
2023/05/09 03:46:41;;;;;;;4.03;2.83;;;20.60;63.50;;;;;;5072765;28;20041;-65
2023/05/09 03:49:07;;;;;;;3.53;2.70;;;20.60;63.50;;;;;;5071860;28;20045;-65
2023/05/09 03:51:32;;;;;;;3.70;2.80;;;20.60;63.40;;;;;;5072557;28;20048;-64
2023/05/09 03:53:58;;;;;;;4.00;2.83;;;20.60;63.40;;;;;;5054562;28;20043;-65
2023/05/09 03:56:24;;;;;;;4.63;2.60;;;20.60;63.50;;;;;;5071811;28;20075;-65
2023/05/09 03:58:50;;;;;;;4.05;2.80;;;20.60;63.50;;;;;;5072375;28;20486;-65
2023/05/09 04:01:15;;;;;;;3.53;2.50;;;20.60;63.40;;;;;;5071570;28;20049;-65
2023/05/09 04:03:41;;;;;;;3.55;2.67;;;20.60;63.40;;;;;;5070543;28;20032;-65
2023/05/09 04:06:06;;;;;;;2.95;2.35;;;20.60;63.40;;;;;;5071320;28;20087;-65
2023/05/09 04:08:32;;;;;;;3.72;2.70;;;20.60;63.40;;;;;;5072227;28;20044;-65
2023/05/09 04:10:57;;;;;;;4.13;2.78;;;20.60;63.40;;;;;;5071632;28;20419;-65
2023/05/09 04:13:23;;;;;;;4.72;3.08;;;20.50;63.40;;;;;;5072111;28;20039;-65
2023/05/09 04:15:49;;;;;;;3.33;2.50;;;20.60;63.40;;;;;;5075760;28;20037;-64
2023/05/09 04:18:14;;;;;;;3.78;2.67;;;20.50;63.30;;;;;;5075567;28;20049;-65
2023/05/09 04:20:40;;;;;;;4.03;2.65;;;20.50;63.30;;;;;;5076449;28;20044;-64
2023/05/09 04:23:05;;;;;;;3.63;2.65;;;20.50;63.40;;;;;;5074608;28;20040;-64
2023/05/09 04:25:31;;;;;;;4.82;2.70;;;20.50;63.40;;;;;;5074807;28;20059;-64
2023/05/09 04:27:57;;;;;;;3.08;2.35;;;20.50;63.30;;;;;;5076205;28;20055;-65
2023/05/09 04:30:25;;;;;;;4.38;2.88;;;20.50;63.30;;;;;;5073518;28;20047;-64
2023/05/09 04:32:52;;;;;;;3.30;2.40;;;20.50;63.30;;;;;;5076033;28;20053;-65
2023/05/09 04:35:17;;;;;;;3.67;2.45;;;20.50;63.30;;;;;;5075710;28;20041;-64
2023/05/09 04:37:43;;;;;;;3.20;2.30;;;20.50;63.30;;;;;;5075397;28;20055;-64
2023/05/09 04:40:09;;;;;;;3.47;2.35;;;20.50;63.30;;;;;;5074276;28;20062;-65
2023/05/09 04:42:36;;;;;;;3.17;2.33;;;20.50;63.30;;;;;;5075968;28;20040;-65
2023/05/09 04:45:02;;;;;;;3.20;2.55;;;20.50;63.30;;;;;;5074927;28;20036;-65
2023/05/09 04:47:27;;;;;;;3.28;2.53;;;20.50;63.30;;;;;;5075686;28;20446;-65
2023/05/09 04:49:53;;;;;;;2.72;2.20;;;20.50;63.30;;;;;;5076005;28;20438;-65
2023/05/09 04:52:18;;;;;;;3.22;2.55;;;20.50;63.30;;;;;;5074561;28;20043;-65
2023/05/09 04:54:44;;;;;;;3.22;2.67;;;20.50;63.30;;;;;;5075541;28;20055;-65
2023/05/09 04:57:09;;;;;;;2.65;2.25;;;20.50;63.30;;;;;;5074840;28;20413;-65
2023/05/09 04:59:35;;;;;;;2.97;2.35;;;20.50;63.30;;;;;;5074907;28;20064;-65
2023/05/09 05:02:01;;;;;;;4.18;3.10;;;20.50;63.30;;;;;;5075642;28;20385;-65
2023/05/09 05:04:27;;;;;;;3.85;2.50;;;20.50;63.30;;;;;;5075135;28;20056;-65
2023/05/09 05:06:52;;;;;;;2.85;2.30;;;20.50;63.30;;;;;;5074764;28;20127;-65
2023/05/09 05:09:18;;;;;;;2.88;2.15;;;20.50;63.30;;;;;;5074932;28;20048;-65
2023/05/09 05:11:43;;;;;;;2.90;2.20;;;20.50;63.30;;;;;;5073899;28;20075;-65
2023/05/09 05:14:09;;;;;;;4.57;2.60;;;20.50;63.30;;;;;;5073068;28;20044;-65
2023/05/09 05:16:34;;;;;;;3.97;2.65;;;20.50;63.30;;;;;;5075149;28;20051;-65
2023/05/09 05:19:00;;;;;;;2.85;2.38;;;20.50;63.30;;;;;;5073951;28;20514;-65
2023/05/09 05:21:25;;;;;;;3.35;2.30;;;20.50;63.30;;;;;;5074080;28;20081;-64
2023/05/09 05:23:51;;;;;;;3.10;2.30;;;20.50;63.30;;;;;;5075030;28;20145;-65
2023/05/09 05:26:16;;;;;;;2.80;2.22;;;20.50;63.30;;;;;;5073651;28;20051;-64
2023/05/09 05:28:42;;;;;;;2.60;2.33;;;20.50;63.30;;;;;;5073023;28;20041;-64
2023/05/09 05:31:08;;;;;;;3.58;2.72;;;20.40;63.30;;;;;;5074789;28;20115;-64
2023/05/09 05:33:33;;;;;;;3.58;2.58;;;20.50;63.40;;;;;;5074231;28;20036;-65
2023/05/09 05:35:59;;;;;;;3.78;2.45;;;20.50;63.40;;;;;;5074964;28;20064;-65
2023/05/09 05:38:24;;;;;;;3.47;2.58;;;20.50;63.40;;;;;;5074617;28;20391;-64
2023/05/09 05:40:50;;;;;;;3.25;2.38;;;20.40;63.40;;;;;;5074136;28;20132;-64
2023/05/09 05:43:15;;;;;;;2.88;2.22;;;20.40;63.30;;;;;;5074737;28;20123;-64
2023/05/09 05:45:41;;;;;;;2.47;2.00;;;20.40;63.30;;;;;;5073241;28;20125;-64
2023/05/09 05:48:06;;;;;;;3.25;2.25;;;20.40;63.30;;;;;;5073730;28;20044;-65
2023/05/09 05:50:32;;;;;;;3.13;2.50;;;20.40;63.30;;;;;;5074643;28;20036;-65
2023/05/09 05:52:57;;;;;;;2.88;2.30;;;20.40;63.30;;;;;;5073543;28;20045;-64
2023/05/09 05:55:23;;;;;;;3.20;2.38;;;20.40;63.30;;;;;;5073543;28;20391;-67
2023/05/09 05:57:49;;;;;;;3.28;2.53;;;20.40;63.40;;;;;;5074808;28;20040;-66
2023/05/09 06:00:15;;;;;;;3.28;2.38;;;20.40;63.40;;;;;;5074077;28;20044;-66
2023/05/09 06:02:43;;;;;;;3.30;2.55;;;20.40;63.50;;;;;;5073589;28;20059;-63
2023/05/09 06:05:09;;;;;;;5.80;2.70;;;20.40;63.50;;;;;;5073080;28;20098;-63
2023/05/09 06:07:35;;;;;;;5.43;3.38;;;20.40;63.60;;;;;;5074301;28;20055;-67
2023/05/09 06:10:00;;;;;;;5.00;3.35;;;20.40;63.80;;;;;;5073348;28;20123;-66
2023/05/09 06:12:26;;;;;;;7.18;3.35;;;20.40;63.90;;;;;;5073973;28;20126;-66
2023/05/09 06:14:51;;;;;;;5.63;3.05;;;20.50;64.00;;;;;;5072882;28;20128;-66
2023/05/09 06:17:17;;;;;;;5.72;3.67;;;20.50;64.20;;;;;;5073080;28;20086;-66
2023/05/09 06:19:42;;;;;;;8.00;3.45;;;20.50;64.30;;;;;;5074057;28;20124;-66
2023/05/09 06:22:08;;;;;;;5.25;3.15;;;20.50;64.40;;;;;;5072767;28;20049;-66
2023/05/09 06:24:33;;;;;;;4.57;2.90;;;20.50;64.50;;;;;;5072806;28;20052;-66
2023/05/09 06:26:59;;;;;;;4.97;2.90;;;20.50;64.60;;;;;;5073973;28;20098;-65
2023/05/09 06:29:25;;;;;;;5.50;2.97;;;20.50;64.40;;;;;;5073226;28;20037;-64
2023/05/09 06:31:50;;;;;;;4.95;3.17;;;20.50;64.40;;;;;;5072596;28;20052;-65
2023/05/09 06:34:16;;;;;;;5.35;3.35;;;20.50;64.50;;;;;;5073100;28;20076;-66
2023/05/09 06:36:41;;;;;;;4.53;2.72;;;20.50;64.50;;;;;;5073703;28;20041;-67
2023/05/09 06:39:07;;;;;;;5.80;2.90;;;20.50;64.60;;;;;;5072265;28;20040;-68
2023/05/09 06:41:32;;;;;;;4.13;2.83;;;20.50;64.70;;;;;;5073843;28;20124;-68
2023/05/09 06:43:58;;;;;;;4.68;2.75;;;20.50;64.70;;;;;;5073023;28;20396;-68
2023/05/09 06:46:24;;;;;;;4.03;2.72;;;20.50;64.70;;;;;;5071776;28;20403;-67
2023/05/09 06:48:49;;;;;;;6.53;3.28;;;20.50;64.80;;;;;;5072176;28;20068;-68
2023/05/09 06:51:15;;;;;;;5.28;3.15;;;20.50;64.80;;;;;;5072119;28;20438;-66
2023/05/09 06:53:40;;;;;;;6.85;3.10;;;20.50;64.90;;;;;;5078264;28;20101;-66
2023/05/09 06:56:06;;;;;;;6.57;3.20;;;20.60;65.00;;;;;;5091804;28;20499;-65
2023/05/09 06:58:31;;;;;;;4.22;2.90;;;20.60;65.00;;;;;;5092206;28;20126;-64
2023/05/09 07:00:57;;;;;;;5.13;3.00;;;20.60;65.00;;;;;;5091916;28;20066;-65
2023/05/09 07:03:23;;;;;;;3.88;2.88;;;20.60;65.00;;;;;;5091629;28;20048;-65
2023/05/09 07:05:48;;;;;;;7.15;2.72;;;20.60;65.00;;;;;;5090989;28;20036;-66
2023/05/09 07:08:14;;;;;;;4.70;2.92;;;20.60;65.00;;;;;;5067424;28;20466;-65
2023/05/09 07:10:39;;;;;;;5.00;3.00;;;20.60;65.20;;;;;;5071754;28;20032;-65
2023/05/09 07:13:05;;;;;;;7.28;3.22;;;20.60;65.20;;;;;;5053104;28;20040;-66
2023/05/09 07:15:30;;;;;;;5.07;3.28;;;20.60;65.30;;;;;;5072206;28;20044;-65
2023/05/09 07:17:56;;;;;;;5.70;2.80;;;20.60;65.20;;;;;;5071734;28;20089;-65
2023/05/09 07:20:22;;;;;;;4.68;3.20;;;20.60;65.30;;;;;;5070298;28;20123;-65
2023/05/09 07:22:47;;;;;;;5.60;3.47;;;20.60;65.30;;;;;;5072109;28;20036;-65
2023/05/09 07:25:13;;;;;;;6.05;3.08;;;20.60;65.30;;;;;;5071847;28;20419;-67
2023/05/09 07:27:38;;;;;;;7.32;3.45;;;20.60;65.30;;;;;;5071709;28;20076;-66
2023/05/09 07:30:04;;;;;;;6.68;3.53;;;20.60;65.30;;;;;;5071017;28;20052;-65
2023/05/09 07:32:30;;;;;;;6.32;3.20;;;20.60;65.30;;;;;;5071476;28;20177;-66
2023/05/09 07:34:56;;;;;;;4.88;3.30;;;20.60;65.40;;;;;;5071141;28;20135;-65
2023/05/09 07:37:21;;;;;;;4.90;3.35;;;20.60;65.40;;;;;;5071299;28;20045;-67
2023/05/09 07:39:47;;;;;;;4.97;3.10;;;20.60;65.40;;;;;;5070931;28;20045;-67
2023/05/09 07:42:12;;;;;;;5.00;3.20;;;20.60;65.40;;;;;;5069754;28;20044;-67
2023/05/09 07:44:38;;;;;;;3.92;2.80;;;20.60;65.40;;;;;;5071386;28;20040;-67
2023/05/09 07:47:04;;;;;;;5.50;3.35;;;20.60;65.30;;;;;;5071319;28;20051;-67
2023/05/09 07:49:30;;;;;;;5.85;3.15;;;20.60;65.30;;;;;;5071232;28;20082;-66
2023/05/09 07:51:56;;;;;;;5.80;3.08;;;20.60;65.30;;;;;;5072458;28;20111;-69
2023/05/09 07:54:22;;;;;;;15.00;3.30;;;20.60;65.40;;;;;;5051694;28;20128;-70
2023/05/09 07:56:47;;;;;;;5.72;3.42;;;20.60;65.40;;;;;;5051454;28;20131;-69
2023/05/09 07:59:13;;;;;;;5.28;3.15;;;20.60;65.40;;;;;;5070844;28;20123;-70
2023/05/09 08:01:38;;;;;;;5.57;3.50;;;20.60;65.40;;;;;;5071983;28;20044;-70
2023/05/09 08:04:05;;;;;;;4.72;3.10;;;20.60;65.40;;;;;;5061368;28;20038;-69
2023/05/09 08:06:31;;;;;;;5.60;3.20;;;20.60;65.30;;;;;;5051806;28;20471;-70
2023/05/09 08:08:57;;;;;;;5.85;3.38;;;20.60;65.30;;;;;;5051252;28;20041;-70
2023/05/09 08:11:22;;;;;;;8.55;3.60;;;20.60;65.90;;;;;;5066882;28;20091;-70
2023/05/09 08:13:49;;;;;;;4.25;3.10;;;20.60;65.20;;;;;;5050702;28;20045;-70
2023/05/09 08:16:16;;;;;;;5.70;3.30;;;20.60;65.20;;;;;;5053482;28;20453;-71
2023/05/09 08:18:42;;;;;;;6.28;3.53;;;20.60;65.20;;;;;;5052022;28;20083;-71
2023/05/09 08:21:07;;;;;;;5.65;3.38;;;20.60;65.10;;;;;;5065253;28;20076;-71
2023/05/09 08:23:33;;;;;;;5.32;3.50;;;20.60;65.10;;;;;;5069895;28;20135;-71
2023/05/09 08:25:58;;;;;;;4.93;3.60;;;20.60;65.10;;;;;;5071648;28;20056;-69
2023/05/09 08:28:27;;;;;;;7.00;3.88;;;20.60;65.10;;;;;;5071735;28;20458;-70
2023/05/09 08:30:53;;;;;;;6.30;3.70;;;20.60;65.00;;;;;;5071739;28;20044;-69
2023/05/09 08:33:18;;;;;;;6.88;3.50;;;20.60;65.00;;;;;;5070725;28;20044;-69
2023/05/09 08:35:44;;;;;;;7.53;3.78;;;20.60;65.00;;;;;;5070720;28;20136;-69
2023/05/09 08:38:10;;;;;;;7.75;4.22;;;20.60;65.00;;;;;;5071011;28;20127;-69
2023/05/09 08:40:39;;;;;;;7.13;4.70;;;20.60;64.90;;;;;;5071938;28;20044;-69
2023/05/09 08:43:05;;;;;;;7.78;4.65;;;20.60;64.90;;;;;;5070766;28;20393;-69
2023/05/09 08:45:32;;;;;;;10.55;5.18;;;20.60;64.90;;;;;;5070283;28;20508;-69
2023/05/09 08:47:57;;;;;;;8.55;5.20;;;20.60;64.90;;;;;;5071019;28;20046;-69
2023/05/09 08:50:23;;;;;;;8.82;5.38;;;20.60;64.90;;;;;;5070514;28;20516;-69
2023/05/09 08:52:49;;;;;;;11.00;6.03;;;20.60;64.90;;;;;;5070252;28;20536;-70
2023/05/09 08:55:15;;;;;;;9.40;5.85;;;20.60;64.90;;;;;;5070291;28;20080;-70
2023/05/09 08:57:40;;;;;;;9.80;6.38;;;20.60;64.80;;;;;;5070089;28;20076;-70
2023/05/09 09:00:10;;;;;;;11.55;6.80;;;20.60;64.80;;;;;;5070451;28;20045;-69
2023/05/09 09:02:35;;;;;;;9.93;6.53;;;20.60;64.80;;;;;;5074746;28;20468;-70
2023/05/09 09:05:01;;;;;;;10.77;6.75;;;20.60;64.70;;;;;;5073403;28;20059;-70
2023/05/09 09:07:27;;;;;;;12.23;7.38;;;20.60;64.70;;;;;;5075094;28;20116;-69
2023/05/09 09:09:52;;;;;;;10.90;6.82;;;20.60;64.80;;;;;;5074032;28;20048;-69
2023/05/09 09:12:18;;;;;;;12.73;6.97;;;20.60;64.80;;;;;;5073042;28;20048;-69
2023/05/09 09:14:49;;;;;;;11.30;6.82;;;20.50;64.70;;;;;;5056795;28;20037;-70
2023/05/09 09:17:16;;;;;;;11.82;7.55;;;20.50;64.70;;;;;;5056885;28;20047;-69
2023/05/09 09:19:43;;;;;;;10.98;7.20;;;20.50;64.70;;;;;;5056689;28;20410;-69
2023/05/09 09:22:08;;;;;;;11.43;7.43;;;20.50;64.80;;;;;;5073697;28;20047;-69
2023/05/09 09:24:34;;;;;;;12.77;7.78;;;20.50;64.80;;;;;;5072727;28;20053;-69
2023/05/09 09:27:03;;;;;;;12.98;7.63;;;20.50;64.80;;;;;;5056496;28;20087;-69
2023/05/09 09:29:29;;;;;;;13.02;8.27;;;20.50;64.90;;;;;;5057097;28;20044;-69
2023/05/09 09:31:55;;;;;;;12.52;7.88;;;20.50;64.90;;;;;;5073964;28;20434;-69
2023/05/09 09:34:21;;;;;;;13.02;9.20;;;20.50;64.90;;;;;;5073820;28;20048;-69
2023/05/09 09:36:47;;;;;;;15.00;9.57;;;20.60;65.00;;;;;;5074934;28;20087;-69
2023/05/09 09:39:13;;;;;;;14.27;9.88;;;20.50;65.00;;;;;;5074647;28;20452;-68
2023/05/09 09:41:38;;;;;;;14.60;9.68;;;20.60;65.10;;;;;;5073968;28;20048;-68
2023/05/09 09:44:11;;;;;;;13.07;9.13;;;20.60;65.20;;;;;;5074284;28;20082;-66
2023/05/09 09:46:53;;;;;;;14.88;9.05;;;20.60;65.30;;;;;;5088526;28;20044;-67
2023/05/09 09:49:20;;;;;;;17.52;9.75;;;20.60;65.60;;;;;;5082601;28;20124;-67
2023/05/09 09:51:55;;;;;;;15.35;9.40;;;20.60;65.70;;;;;;5073146;28;20096;-68
2023/05/09 09:54:20;;;;;;;16.30;9.60;;;20.60;65.90;;;;;;5072277;28;20053;-67
2023/05/09 09:56:52;;;;;;;13.80;9.40;;;20.60;65.90;;;;;;5073667;28;20044;-68
2023/05/09 09:59:19;;;;;;;15.02;9.82;;;20.60;66.10;;;;;;5078132;28;20037;-67
2023/05/09 10:02:00;;;;;;;16.02;10.55;;;20.60;66.20;;;;;;5073626;28;20043;-66
2023/05/09 10:04:29;;;;;;;16.92;10.85;;;20.60;66.30;;;;;;5074664;28;20444;-66
2023/05/09 10:06:55;;;;;;;;;;;20.60;67.00;;;;;;5086829;28;20395;-66
2023/05/09 10:09:22;;;;;;;17.15;10.32;;;20.60;66.50;;;;;;5087339;28;20020;-66
2023/05/09 10:11:50;;;;;;;17.75;10.55;;;20.70;66.50;;;;;;5092409;28;20043;-65
2023/05/09 10:14:17;;;;;;;20.05;11.35;;;20.60;66.60;;;;;;5080001;28;20041;-65
2023/05/09 10:16:42;;;;;;;16.33;11.60;;;20.70;66.70;;;;;;5071556;28;20052;-65
2023/05/09 10:19:08;;;;;;;19.17;11.52;;;20.70;66.70;;;;;;5071448;28;20127;-66
2023/05/09 10:21:33;;;;;;;18.30;11.40;;;20.70;66.70;;;;;;5055669;28;20182;-65
2023/05/09 10:23:59;;;;;;;19.45;11.90;;;20.70;66.70;;;;;;5071347;28;20037;-66
2023/05/09 10:26:27;;;;;;;20.20;12.25;;;20.70;66.70;;;;;;5072148;28;20597;-67
2023/05/09 10:28:54;;;;;;;20.25;12.25;;;20.70;66.60;;;;;;5071063;28;20400;-67
2023/05/09 10:31:26;;;;;;;21.33;12.65;;;20.70;66.60;;;;;;5069893;28;20045;-67
2023/05/09 10:33:52;;;;;;;23.42;13.30;;;20.80;66.50;;;;;;5072633;28;20047;-67
2023/05/09 10:36:19;;;;;;;20.92;12.60;;;20.80;66.50;;;;;;5071454;28;20040;-67
2023/05/09 10:38:46;;;;;;;17.80;12.27;;;20.80;66.40;;;;;;5073546;28;20056;-67
2023/05/09 10:41:12;;;;;;;24.75;14.40;;;20.80;66.40;;;;;;5071769;28;20097;-67
2023/05/09 10:43:38;;;;;;;20.08;11.82;;;20.80;66.40;;;;;;5073036;28;20036;-67
2023/05/09 10:46:03;;;;;;;18.08;11.35;;;20.80;66.30;;;;;;5072120;28;20043;-67
2023/05/09 10:48:32;;;;;;;17.05;11.82;;;20.80;66.20;;;;;;5054346;28;20496;-67
2023/05/09 10:50:59;;;;;;;18.60;11.73;;;20.80;66.20;;;;;;5073345;28;20480;-66
2023/05/09 10:53:41;;;;;;;20.90;12.20;;;20.80;66.10;;;;;;5070929;28;20048;-68
2023/05/09 10:56:06;;;;;;;18.27;11.57;;;20.80;66.20;;;;;;5054078;28;20446;-66
2023/05/09 10:58:35;;;;;;;20.88;11.95;;;20.90;66.30;;;;;;5070270;28;20041;-66
2023/05/09 11:01:01;;;;;;;18.88;11.82;;;20.80;66.30;;;;;;5072048;28;20504;-66
2023/05/09 11:03:27;;;;;;;19.73;12.32;;;20.90;66.40;;;;;;5070861;28;20045;-66
2023/05/09 11:05:54;;;;;;;19.20;11.90;;;20.90;66.50;;;;;;5071591;28;20032;-66
2023/05/09 11:08:20;;;;;;;17.90;11.65;;;20.90;66.50;;;;;;5071982;28;20142;-65
2023/05/09 11:10:46;;;;;;;20.45;12.18;;;20.90;66.60;;;;;;5072053;28;20137;-66
2023/05/09 11:13:12;;;;;;;19.90;11.90;;;20.90;66.60;;;;;;5071615;28;20446;-66
2023/05/09 11:15:52;;;;;;;18.58;11.88;;;21.00;66.70;;;;;;5070889;28;20060;-66
2023/05/09 11:18:18;;;;;;;21.90;12.70;;;21.00;66.80;;;;;;5070274;28;20048;-66
2023/05/09 11:20:45;;;;;;;16.48;10.75;;;21.00;66.70;;;;;;5054173;28;20121;-66
2023/05/09 11:23:10;;;;;;;21.92;11.85;;;21.00;66.80;;;;;;5069352;28;20040;-66
2023/05/09 11:25:37;;;;;;;17.58;11.40;;;21.00;66.70;;;;;;5069024;28;20446;-67
2023/05/09 11:28:03;;;;;;;21.88;11.90;;;21.00;66.70;;;;;;5070533;28;20049;-68
2023/05/09 11:30:39;;;;;;;20.92;11.98;;;21.10;66.80;;;;;;5065848;28;20051;-67
2023/05/09 11:33:05;;;;;;;18.52;10.88;;;21.10;66.80;;;;;;5071492;28;20086;-68
2023/05/09 11:35:32;;;;;;;18.90;11.68;;;21.10;66.80;;;;;;5070745;28;20478;-67
2023/05/09 11:38:01;;;;;;;18.15;11.70;;;21.20;66.90;;;;;;5071468;28;20515;-68
2023/05/09 11:40:27;;;;;;;18.23;10.82;;;21.20;66.90;;;;;;5069681;28;20100;-67
2023/05/09 11:42:54;;;;;;;22.20;12.18;;;21.20;66.90;;;;;;5071468;28;20127;-67
2023/05/09 11:45:20;;;;;;;16.85;11.07;;;21.10;66.90;;;;;;5068732;28;20079;-68
2023/05/09 11:47:46;;;;;;;19.00;11.48;;;21.20;66.90;;;;;;5069847;28;20068;-69
2023/05/09 11:50:13;;;;;;;17.10;11.50;;;21.10;66.90;;;;;;5071246;28;20551;-67
2023/05/09 11:52:38;;;;;;;20.23;11.57;;;21.10;66.90;;;;;;5071784;28;20045;-68
2023/05/09 11:55:14;;;;;;;19.50;11.60;;;21.10;66.90;;;;;;5071013;28;20056;-67
2023/05/09 11:57:41;;;;;;;19.20;11.68;;;21.10;66.90;;;;;;5070422;28;20036;-68
2023/05/09 12:00:08;;;;;;;19.45;11.75;;;21.10;66.90;;;;;;5070821;28;20052;-69
2023/05/09 12:02:34;;;;;;;19.27;11.32;;;21.10;66.90;;;;;;5071710;28;20106;-69
2023/05/09 12:05:10;;;;;;;19.75;11.57;;;21.10;67.00;;;;;;5053620;28;20472;-69
2023/05/09 12:07:36;;;;;;;19.80;11.88;;;21.10;67.00;;;;;;5071558;28;20080;-69
2023/05/09 12:10:07;;;;;;;18.38;11.90;;;21.10;67.00;;;;;;5071078;28;20050;-70
2023/05/09 12:12:40;;;;;;;19.52;11.63;;;21.00;67.60;;;;;;5072339;28;20045;-69
2023/05/09 12:15:07;;;;;;;18.60;11.70;;;21.00;67.10;;;;;;5070326;28;20105;-69
2023/05/09 12:17:33;;;;;;;19.23;12.27;;;21.00;67.10;;;;;;5072393;28;20041;-70
2023/05/09 12:20:04;;;;;;;19.15;12.18;;;21.00;67.10;;;;;;5072495;28;20499;-68
2023/05/09 12:22:30;;;;;;;19.17;12.30;;;21.00;67.20;;;;;;5071464;28;20040;-68
2023/05/09 12:24:56;;;;;;;20.92;12.20;;;21.00;67.20;;;;;;5071752;28;20515;-69
2023/05/09 12:27:22;;;;;;;19.15;11.90;;;21.00;67.10;;;;;;5072144;28;20132;-69
2023/05/09 12:29:48;;;;;;;21.33;12.65;;;21.00;67.20;;;;;;5053746;28;20047;-69
2023/05/09 12:32:14;;;;;;;19.35;12.20;;;21.00;67.20;;;;;;5070706;28;20045;-69
2023/05/09 12:34:40;;;;;;;19.42;11.88;;;21.00;67.20;;;;;;5071360;28;20089;-69
2023/05/09 12:37:16;;;;;;;20.88;12.18;;;21.00;67.20;;;;;;5073624;28;20072;-71
2023/05/09 12:40:01;;;;;;;18.42;12.05;;;21.00;67.10;;;;;;5075752;28;20088;-69